createdAt,value
2018-06-08T04:02:47.872Z,99.90
2018-06-08T04:05:20.443Z,99.90
2018-06-08T04:07:52.960Z,99.90
2018-06-08T04:10:25.862Z,99.90
2018-06-08T04:12:58.318Z,99.90
2018-06-08T04:15:31.110Z,99.90
2018-06-08T04:18:03.565Z,99.90
2018-06-08T04:20:36.546Z,99.90
2018-06-08T04:23:09.127Z,99.90
2018-06-08T04:25:41.717Z,99.90
2018-06-08T04:28:14.174Z,99.90
2018-06-08T04:33:19.035Z,99.90
2018-06-08T04:35:51.567Z,99.90
2018-06-08T04:38:24.210Z,99.90
2018-06-08T04:40:56.821Z,99.90
2018-06-08T04:43:29.864Z,99.90
2018-06-08T04:46:02.445Z,99.90
2018-06-08T04:48:35.211Z,99.90
2018-06-08T04:51:07.830Z,99.90
2018-06-08T04:53:40.373Z,99.90
2018-06-08T04:56:12.920Z,99.90
2018-06-08T04:58:45.845Z,99.90
2018-06-08T05:01:18.562Z,99.90
2018-06-08T05:03:51.537Z,99.90
2018-06-08T05:06:24.381Z,99.90
2018-06-08T05:08:56.980Z,99.90
2018-06-08T05:11:29.639Z,99.90
2018-06-08T05:16:34.965Z,99.90
2018-06-08T05:19:07.886Z,99.90
2018-06-08T05:21:40.540Z,99.80
2018-06-08T05:24:13.458Z,99.90
2018-06-08T05:26:46.033Z,99.20
2018-06-08T05:29:18.657Z,99.10
2018-06-08T05:31:51.556Z,98.90
2018-06-08T05:34:24.670Z,99.00
2018-06-08T05:36:57.870Z,98.50
2018-06-08T05:39:30.370Z,98.40
2018-06-08T05:42:02.999Z,98.00
2018-06-08T05:44:35.848Z,97.80
2018-06-08T05:47:08.654Z,98.00
2018-06-08T05:49:41.365Z,97.70
2018-06-08T05:52:15.179Z,97.70
2018-06-08T05:54:48.209Z,97.30
2018-06-08T05:57:20.788Z,97.00
2018-06-08T05:59:53.408Z,96.70
2018-06-08T06:02:26.079Z,95.60
2018-06-08T06:04:59.158Z,96.00
2018-06-08T06:07:32.107Z,95.40
2018-06-08T06:10:05.384Z,95.60
2018-06-08T06:12:38.193Z,96.00
2018-06-08T06:15:10.949Z,96.00
2018-06-08T06:17:43.555Z,96.30
2018-06-08T06:22:49.145Z,95.50
2018-06-08T06:25:21.697Z,95.30
2018-06-08T06:27:54.347Z,94.80
2018-06-08T06:30:26.770Z,95.10
2018-06-08T06:32:59.168Z,95.80
2018-06-08T06:35:31.560Z,95.10
2018-06-08T06:38:04.295Z,95.00
2018-06-08T06:43:09.239Z,95.10
2018-06-08T06:45:41.645Z,94.70
2018-06-08T06:48:14.289Z,94.70
2018-06-08T06:50:46.692Z,94.80
2018-06-08T06:53:19.119Z,94.40
2018-06-08T06:55:51.505Z,94.60
2018-06-08T06:58:23.921Z,95.10
2018-06-08T07:00:56.350Z,95.30
2018-06-08T07:03:28.788Z,95.10
2018-06-08T07:06:01.206Z,95.00
2018-06-08T07:08:33.967Z,94.30
2018-06-08T07:11:06.400Z,94.40
2018-06-08T07:13:38.848Z,94.20
2018-06-08T07:16:11.250Z,94.10
2018-06-08T07:18:43.698Z,94.50
2018-06-08T07:21:16.100Z,94.70
2018-06-08T07:23:49.028Z,94.70
2018-06-08T07:26:21.770Z,94.50
2018-06-08T07:28:54.476Z,94.10
2018-06-08T07:31:27.186Z,93.90
2018-06-08T07:33:59.717Z,93.90
2018-06-08T07:36:32.133Z,93.70
2018-06-08T07:39:06.785Z,93.30
2018-06-08T07:41:39.200Z,93.10
2018-06-08T07:44:11.633Z,92.60
2018-06-08T07:46:44.329Z,92.50
2018-06-08T07:49:16.748Z,92.20
2018-06-08T07:51:49.156Z,91.40
2018-06-08T07:54:21.605Z,91.30
2018-06-08T07:56:54.014Z,91.40
2018-06-08T07:59:26.469Z,91.30
2018-06-08T08:01:58.886Z,91.30
2018-06-08T08:04:31.317Z,91.30
2018-06-08T08:07:04.013Z,91.30
2018-06-08T08:09:36.445Z,91.80
2018-06-08T08:12:08.859Z,92.10
2018-06-08T08:14:41.305Z,91.70
2018-06-08T08:17:13.712Z,91.50
2018-06-08T08:19:46.433Z,91.60
2018-06-08T08:22:19.173Z,91.20
2018-06-08T08:24:51.597Z,91.20
2018-06-08T08:27:23.996Z,91.30
2018-06-08T08:29:56.425Z,91.40
2018-06-08T08:32:29.106Z,91.70
2018-06-08T08:35:01.785Z,91.90
2018-06-08T08:37:34.247Z,92.00
2018-06-08T08:40:06.937Z,92.10
2018-06-08T08:42:39.353Z,92.60
2018-06-08T08:45:11.821Z,93.10
2018-06-08T08:47:44.236Z,93.40
2018-06-08T08:50:16.649Z,93.90
2018-06-08T08:52:49.056Z,94.20
2018-06-08T08:55:21.769Z,94.50
2018-06-08T08:57:54.455Z,94.90
2018-06-08T09:00:27.444Z,95.30
2018-06-08T09:02:59.863Z,95.70
2018-06-08T09:05:32.273Z,96.20
2018-06-08T09:08:04.779Z,96.90
2018-06-08T09:10:37.508Z,97.50
2018-06-08T09:13:10.161Z,98.00
2018-06-08T09:15:42.572Z,98.60
2018-06-08T09:18:15.213Z,99.40
2018-06-08T09:20:47.633Z,99.60
2018-06-08T09:23:20.046Z,99.90
2018-06-08T09:25:52.444Z,99.90
2018-06-08T09:28:25.058Z,99.90
2018-06-08T09:30:57.465Z,99.90
2018-06-08T09:33:29.837Z,99.90
2018-06-08T09:36:02.243Z,99.90
2018-06-08T09:38:34.633Z,99.90
2018-06-08T09:41:07.037Z,99.90
2018-06-08T09:43:39.706Z,99.90
2018-06-08T09:46:12.140Z,99.90
2018-06-08T09:48:44.753Z,99.90
2018-06-08T09:51:17.207Z,99.90
2018-06-08T09:53:49.601Z,99.90
2018-06-08T09:56:22.097Z,99.90
2018-06-08T09:58:54.724Z,99.90
2018-06-08T10:01:27.194Z,99.90
2018-06-08T10:03:59.612Z,99.90
2018-06-08T10:06:32.260Z,99.90
2018-06-08T10:09:06.862Z,99.90
2018-06-08T10:11:39.280Z,99.90
2018-06-08T10:14:12.213Z,99.90
2018-06-08T10:16:44.926Z,99.90
2018-06-08T10:19:17.594Z,99.90
2018-06-08T10:24:22.329Z,99.90
2018-06-08T10:26:55.042Z,99.90
2018-06-08T10:29:27.437Z,99.90
2018-06-08T10:32:00.086Z,99.90
2018-06-08T10:34:32.489Z,99.90
2018-06-08T10:37:04.938Z,99.90
2018-06-08T10:39:37.617Z,99.90
2018-06-08T10:42:10.685Z,99.90
2018-06-08T10:44:43.089Z,99.90
2018-06-08T10:47:15.485Z,99.90
2018-06-08T10:49:47.921Z,99.90
2018-06-08T10:52:20.333Z,99.90
2018-06-08T10:54:52.705Z,99.90
2018-06-08T10:57:25.116Z,99.90
2018-06-08T10:59:57.573Z,99.90
2018-06-08T11:02:29.982Z,99.90
2018-06-08T11:05:02.409Z,99.90
2018-06-08T11:07:34.836Z,99.90
2018-06-08T11:10:07.199Z,99.90
2018-06-08T11:12:39.592Z,99.90
2018-06-08T11:15:11.978Z,99.90
2018-06-08T11:17:44.387Z,99.90
2018-06-08T11:20:16.775Z,99.90
2018-06-08T11:22:49.470Z,99.90
2018-06-08T11:25:22.097Z,99.90
2018-06-08T11:27:54.501Z,99.90
2018-06-08T11:30:26.890Z,99.90
2018-06-08T11:32:59.313Z,99.90
2018-06-08T11:35:31.987Z,99.90
2018-06-08T11:38:04.932Z,99.90
2018-06-08T11:40:37.321Z,99.90
2018-06-08T11:43:09.729Z,99.90
2018-06-08T11:45:42.459Z,99.90
2018-06-08T11:48:15.108Z,99.90
2018-06-08T11:50:47.490Z,99.90
2018-06-08T11:53:20.245Z,99.90
2018-06-08T11:55:52.566Z,99.90
2018-06-08T11:58:25.070Z,99.90
2018-06-08T12:00:57.488Z,99.90
2018-06-08T12:03:29.974Z,99.90
2018-06-08T12:06:02.598Z,99.90
2018-06-08T12:08:35.541Z,99.90
2018-06-08T12:11:08.293Z,99.90
2018-06-08T12:13:41.000Z,99.90
2018-06-08T12:16:13.473Z,99.80
2018-06-08T12:18:46.140Z,99.90
2018-06-08T12:21:18.769Z,99.90
2018-06-08T12:23:51.198Z,99.30
2018-06-08T12:26:23.581Z,99.40
2018-06-08T12:28:56.147Z,99.20
2018-06-08T12:31:28.551Z,99.60
2018-06-08T12:34:00.959Z,99.90
2018-06-08T12:36:33.946Z,98.80
2018-06-08T12:39:06.727Z,98.90
2018-06-08T12:41:39.127Z,98.60
2018-06-08T12:44:11.526Z,98.30
2018-06-08T12:46:43.950Z,98.40
2018-06-08T12:49:16.373Z,97.20
2018-06-08T12:51:49.095Z,97.20
2018-06-08T12:54:21.509Z,97.10
2018-06-08T12:56:53.931Z,96.60
2018-06-08T12:59:26.622Z,97.20
2018-06-08T13:01:59.022Z,97.10
2018-06-08T13:04:31.706Z,96.20
2018-06-08T13:07:04.324Z,96.00
2018-06-08T13:09:36.738Z,96.00
2018-06-08T13:12:09.340Z,95.90
2018-06-08T13:14:41.769Z,94.80
2018-06-08T13:17:14.434Z,95.70
2018-06-08T13:19:46.841Z,95.90
2018-06-08T13:22:19.497Z,95.90
2018-06-08T13:24:52.422Z,95.60
2018-06-08T13:27:25.066Z,95.70
2018-06-08T13:29:57.464Z,96.20
2018-06-08T13:32:29.845Z,96.60
2018-06-08T13:35:02.498Z,96.70
2018-06-08T13:37:35.200Z,96.30
2018-06-08T13:40:07.869Z,96.30
2018-06-08T13:42:40.262Z,96.50
2018-06-08T13:45:12.739Z,95.60
2018-06-08T13:47:45.099Z,95.50
2018-06-08T13:50:17.497Z,96.40
2018-06-08T13:52:49.877Z,96.70
2018-06-08T13:55:22.287Z,96.80
2018-06-08T13:57:54.669Z,96.70
2018-06-08T14:00:27.335Z,96.70
2018-06-08T14:03:00.007Z,96.60
2018-06-08T14:05:32.709Z,96.70
2018-06-08T14:08:05.121Z,97.20
2018-06-08T14:10:37.521Z,97.30
2018-06-08T14:13:10.405Z,96.50
2018-06-08T14:15:42.801Z,96.50
2018-06-08T14:18:15.457Z,95.70
2018-06-08T14:20:48.140Z,95.80
2018-06-08T14:23:20.577Z,95.90
2018-06-08T14:25:53.093Z,96.20
2018-06-08T14:28:25.469Z,95.70
2018-06-08T14:30:57.874Z,94.20
2018-06-08T14:33:30.485Z,94.40
2018-06-08T14:36:03.125Z,94.40
2018-06-08T14:38:35.516Z,93.90
2018-06-08T14:41:07.916Z,94.10
2018-06-08T14:43:40.917Z,94.40
2018-06-08T14:46:13.329Z,94.60
2018-06-08T14:48:45.708Z,94.70
2018-06-08T14:51:18.117Z,94.30
2018-06-08T14:53:50.749Z,94.40
2018-06-08T14:56:23.138Z,94.10
2018-06-08T14:58:55.525Z,94.80
2018-06-08T15:01:27.913Z,94.50
2018-06-08T15:04:00.293Z,94.20
2018-06-08T15:06:32.685Z,94.20
2018-06-08T15:09:06.181Z,94.40
2018-06-08T15:14:10.793Z,94.70
2018-06-08T15:16:43.218Z,95.00
2018-06-08T15:19:15.605Z,94.40
2018-06-08T15:21:48.273Z,94.10
2018-06-08T15:24:20.657Z,94.20
2018-06-08T15:26:53.378Z,93.80
2018-06-08T15:29:25.793Z,93.80
2018-06-08T15:31:58.434Z,93.00
2018-06-08T15:34:30.871Z,93.30
2018-06-08T15:37:03.526Z,93.00
2018-06-08T15:39:35.916Z,92.40
2018-06-08T15:42:08.884Z,92.40
2018-06-08T15:44:41.610Z,92.50
2018-06-08T15:47:14.078Z,92.30
2018-06-08T15:49:46.473Z,92.50
2018-06-08T15:52:18.897Z,92.50
2018-06-08T15:54:51.318Z,92.80
2018-06-08T15:57:25.112Z,92.70
2018-06-08T15:59:57.503Z,92.70
2018-06-08T16:02:29.909Z,92.80
2018-06-08T16:05:02.636Z,93.00
2018-06-08T16:07:35.057Z,92.80
2018-06-08T16:10:07.444Z,92.80
2018-06-08T16:12:39.840Z,93.00
2018-06-08T16:15:12.220Z,93.10
2018-06-08T16:17:44.924Z,93.20
2018-06-08T16:20:17.313Z,93.80
2018-06-08T16:22:49.715Z,93.80
2018-06-08T16:25:22.111Z,94.00
2018-06-08T16:27:54.747Z,93.90
2018-06-08T16:30:27.396Z,93.60
2018-06-08T16:33:00.093Z,93.70
2018-06-08T16:35:32.497Z,93.80
2018-06-08T16:38:05.243Z,93.70
2018-06-08T16:40:37.613Z,94.00
2018-06-08T16:43:10.007Z,93.60
2018-06-08T16:45:42.423Z,93.40
2018-06-08T16:48:15.049Z,93.40
2018-06-08T16:50:47.773Z,93.30
2018-06-08T16:53:20.409Z,93.40
2018-06-08T16:55:53.143Z,93.10
2018-06-08T16:58:25.485Z,92.90
2018-06-08T17:00:57.870Z,92.80
2018-06-08T17:03:30.273Z,92.90
2018-06-08T17:06:02.969Z,93.10
2018-06-08T17:08:35.865Z,93.10
2018-06-08T17:11:08.248Z,93.50
2018-06-08T17:13:40.638Z,93.70
2018-06-08T17:16:13.389Z,93.80
2018-06-08T17:18:46.143Z,93.80
2018-06-08T17:21:18.734Z,93.90
2018-06-08T17:26:23.931Z,94.10
2018-06-08T17:28:56.786Z,93.70
2018-06-08T17:31:29.501Z,93.70
2018-06-08T17:34:02.265Z,93.60
2018-06-08T17:36:34.994Z,93.80
2018-06-08T17:39:07.938Z,93.80
2018-06-08T17:41:40.640Z,94.00
2018-06-08T17:44:13.386Z,94.20
2018-06-08T17:46:46.132Z,94.30
2018-06-08T17:49:18.868Z,94.40
2018-06-08T17:51:51.579Z,94.40
2018-06-08T17:54:24.401Z,94.50
2018-06-08T17:56:57.093Z,94.50
2018-06-08T17:59:29.793Z,94.20
2018-06-08T18:02:02.503Z,94.40
2018-06-08T18:04:35.231Z,94.50
2018-06-08T18:07:07.937Z,94.60
2018-06-08T18:09:40.998Z,94.60
2018-06-08T18:12:13.706Z,94.80
2018-06-08T18:14:46.433Z,94.90
2018-06-08T18:17:19.128Z,94.90
2018-06-08T18:19:51.556Z,95.10
2018-06-08T18:22:23.954Z,95.00
2018-06-08T18:27:28.594Z,95.00
2018-06-08T18:30:00.985Z,95.00
2018-06-08T18:32:33.396Z,95.20
2018-06-08T18:35:06.073Z,95.20
2018-06-08T18:37:38.745Z,95.50
2018-06-08T18:40:11.380Z,95.70
2018-06-08T18:42:43.762Z,95.90
2018-06-08T18:45:16.281Z,96.10
2018-06-08T18:47:48.909Z,96.30
2018-06-08T18:50:21.301Z,96.40
2018-06-08T18:52:53.680Z,96.60
2018-06-08T18:55:26.072Z,96.60
2018-06-08T18:57:58.452Z,96.50
2018-06-08T19:00:30.905Z,96.60
2018-06-08T19:03:03.310Z,96.70
2018-06-08T19:05:35.701Z,96.80
2018-06-08T19:08:08.351Z,97.00
2018-06-08T19:10:41.070Z,97.00
2018-06-08T19:13:13.698Z,97.10
2018-06-08T19:15:46.377Z,97.30
2018-06-08T19:18:18.769Z,97.30
2018-06-08T19:20:51.445Z,97.50
2018-06-08T19:23:24.109Z,97.70
2018-06-08T19:25:56.494Z,97.70
2018-06-08T19:28:28.911Z,97.80
2018-06-08T19:31:01.390Z,97.90
2018-06-08T19:33:33.790Z,97.90
2018-06-08T19:36:06.484Z,98.10
2018-06-08T19:38:38.876Z,98.30
2018-06-08T19:41:11.372Z,98.30
2018-06-08T19:43:44.053Z,98.40
2018-06-08T19:46:16.831Z,98.60
2018-06-08T19:48:49.225Z,98.70
2018-06-08T19:51:21.604Z,98.70
2018-06-08T19:53:54.017Z,98.80
2018-06-08T19:56:26.786Z,98.80
2018-06-08T19:58:59.237Z,99.00
2018-06-08T20:01:33.010Z,99.00
2018-06-08T20:04:05.755Z,99.10
2018-06-08T20:06:38.159Z,99.10
2018-06-08T20:09:10.550Z,99.20
2018-06-08T20:11:43.312Z,99.20
2018-06-08T20:14:15.961Z,99.30
2018-06-08T20:16:48.644Z,99.20
2018-06-08T20:19:21.256Z,99.50
2018-06-08T20:21:53.644Z,99.60
2018-06-08T20:24:26.040Z,99.30
2018-06-08T20:26:58.744Z,99.20
2018-06-08T20:29:31.132Z,99.30
2018-06-08T20:32:03.525Z,99.50
2018-06-08T20:34:36.200Z,99.20
2018-06-08T20:37:08.582Z,99.30
2018-06-08T20:39:40.976Z,99.30
2018-06-08T20:42:13.361Z,99.40
2018-06-08T20:44:45.773Z,99.60
2018-06-08T20:47:18.397Z,99.50
2018-06-08T20:49:51.092Z,99.60
2018-06-08T20:52:23.510Z,99.70
2018-06-08T20:54:55.929Z,99.70
2018-06-08T20:57:28.365Z,99.80
2018-06-08T21:00:01.446Z,99.80
2018-06-08T21:02:33.888Z,99.90
2018-06-08T21:05:06.293Z,99.90
2018-06-08T21:07:38.765Z,99.90
2018-06-08T21:10:11.448Z,99.90
2018-06-08T21:12:44.072Z,99.90
2018-06-08T21:15:17.086Z,99.90
2018-06-08T21:20:21.908Z,99.90
2018-06-08T21:22:54.321Z,99.90
2018-06-08T21:25:26.985Z,99.90
2018-06-08T21:27:59.356Z,99.90
2018-06-08T21:30:31.761Z,99.90
2018-06-08T21:33:04.472Z,99.90
2018-06-08T21:35:37.414Z,99.90
2018-06-08T21:38:10.098Z,99.90
2018-06-08T21:40:42.475Z,99.90
2018-06-08T21:43:14.845Z,99.90
2018-06-08T21:45:47.337Z,99.90
2018-06-08T21:48:20.089Z,99.90
2018-06-08T21:50:52.474Z,99.90
2018-06-08T21:53:25.165Z,99.90
2018-06-08T21:55:57.880Z,99.90
2018-06-08T21:58:30.257Z,99.90
2018-06-08T22:01:02.994Z,99.90
2018-06-08T22:03:35.721Z,99.90
2018-06-08T22:06:08.401Z,99.90
2018-06-08T22:08:40.801Z,99.90
2018-06-08T22:11:13.185Z,99.90
2018-06-08T22:13:45.565Z,99.90
2018-06-08T22:16:17.941Z,99.90
2018-06-08T22:18:50.332Z,99.90
2018-06-08T22:21:22.737Z,99.90
2018-06-08T22:23:55.444Z,99.90
2018-06-08T22:26:28.065Z,99.90
2018-06-08T22:29:00.457Z,99.90
2018-06-08T22:31:32.853Z,99.90
2018-06-08T22:34:05.504Z,99.90
2018-06-08T22:36:38.201Z,99.90
2018-06-08T22:39:10.836Z,99.90
2018-06-08T22:41:43.235Z,99.90
2018-06-08T22:44:15.908Z,99.90
2018-06-08T22:46:48.365Z,99.90
2018-06-08T22:49:21.000Z,99.90
2018-06-08T22:51:53.395Z,99.90
2018-06-08T22:54:25.865Z,99.90
2018-06-08T22:56:59.040Z,99.90
2018-06-08T22:59:31.465Z,99.90
2018-06-08T23:02:04.089Z,99.90
2018-06-08T23:04:36.736Z,99.90
2018-06-08T23:07:09.113Z,99.90
2018-06-08T23:09:41.485Z,99.90
2018-06-08T23:12:13.889Z,99.90
2018-06-08T23:14:46.505Z,99.90
2018-06-08T23:17:18.913Z,99.90
2018-06-08T23:19:51.557Z,99.90
2018-06-08T23:22:23.949Z,99.90
2018-06-08T23:24:56.326Z,99.90
2018-06-08T23:27:28.713Z,99.90
2018-06-08T23:30:01.389Z,99.90
2018-06-08T23:32:34.037Z,99.90
2018-06-08T23:35:06.417Z,99.90
2018-06-08T23:37:38.822Z,99.90
2018-06-08T23:40:11.202Z,99.90
2018-06-08T23:42:43.589Z,99.90
2018-06-08T23:45:16.057Z,99.90
2018-06-08T23:47:49.133Z,99.90
2018-06-08T23:50:21.744Z,99.90
2018-06-08T23:52:54.464Z,99.90
2018-06-08T23:55:26.837Z,99.90
2018-06-08T23:57:59.221Z,99.90
